Terminal Aerodrome Forecast
Issued by NWS

Home | Current Version | Previous Version | Text Only | Print | Product List | Glossary On
Versions: 1 2 3 4 5 6 7 8 9 10 11 12 13 14 15 16 17 18 19
000
FTUS43 KGRB 190500
TAFAUW
TAF
KAUW 190520Z 1906/2006 11006KT P6SM SCT120
     FM191100 12010KT P6SM SCT080 BKN140 WS015/14035KT
     FM191500 15014G22KT P6SM SCT040 BKN100
     FM200100 16007KT P6SM SCT035 BKN100 PROB30 2003/2006 -SHRA
      BKN035 OVC070=

USA.gov is the U.S. government's official web portal to all federal, state and local government web resources and services.